Redrock, New Mexico
Current Conditions -  °F | °C
As of 7:55 AM on Friday 19 Dec 2014 (Local Time) from KLSB Reporting Station
Moderate Fog Moderate Fog  
Wind Chill: 26°   Ceiling: 200
Heat Index: 32°   Visibility: 0.25mi
Dew Point: 32°   Wind: 7mph
Humidity: 100%   Direction: 320°NW
Pressure: 30.21"   Gusts: NA
Location:  32.69°N, 108.74°W
Report Text: KLSB 191455Z AUTO 32006KT 1/4SM FZFG OVC002 00/00 A3021 RMK AO2
Loading
Personal Weather Stations






























Interactive Weather Map New forecast layout! Learn more

10-Day Weather Forecast

Advertisements
Track Severe Weather on mobile